createdAt,value
2022-12-24T00:00:34.816Z,22.20
2022-12-24T00:03:01.477Z,19.30
2022-12-24T00:05:28.161Z,20.43
2022-12-24T00:07:54.652Z,18.60
2022-12-24T00:10:21.173Z,18.67
2022-12-24T00:12:47.652Z,22.97
2022-12-24T00:15:14.178Z,21.20
2022-12-24T00:17:40.648Z,22.20
2022-12-24T00:20:07.674Z,25.20
2022-12-24T00:22:34.209Z,20.93
2022-12-24T00:25:00.765Z,21.80
2022-12-24T00:27:27.258Z,30.50
2022-12-24T00:29:53.743Z,21.53
2022-12-24T00:32:20.254Z,20.97
2022-12-24T00:34:46.858Z,21.20
2022-12-24T00:37:13.387Z,22.30
2022-12-24T00:39:39.880Z,18.77
2022-12-24T00:42:06.425Z,17.73
2022-12-24T00:44:32.943Z,19.23
2022-12-24T00:46:59.634Z,22.43
2022-12-24T00:49:26.176Z,22.13
2022-12-24T00:51:52.713Z,23.83
2022-12-24T00:54:19.220Z,24.23
2022-12-24T00:56:45.738Z,24.17
2022-12-24T00:59:12.214Z,26.40
2022-12-24T01:01:38.846Z,23.60
2022-12-24T01:04:23.999Z,25.37
2022-12-24T01:06:50.538Z,23.50
2022-12-24T01:09:17.073Z,25.77
2022-12-24T01:11:43.561Z,24.10
2022-12-24T01:14:10.279Z,26.83
2022-12-24T01:16:36.781Z,26.50
2022-12-24T01:19:03.420Z,25.33
2022-12-24T01:21:29.961Z,30.87
2022-12-24T01:23:56.465Z,30.53
2022-12-24T01:26:23.151Z,27.10
2022-12-24T01:28:49.699Z,24.33
2022-12-24T01:31:16.997Z,25.97
2022-12-24T01:33:43.653Z,27.87
2022-12-24T01:36:10.433Z,29.17
2022-12-24T01:38:36.951Z,28.93
2022-12-24T01:41:22.061Z,32.03
2022-12-24T01:43:48.598Z,30.00
2022-12-24T01:46:25.479Z,32.73
2022-12-24T01:48:53.213Z,36.33
2022-12-24T01:51:28.860Z,33.10
2022-12-24T01:53:57.390Z,33.33
2022-12-24T01:56:23.901Z,32.70
2022-12-24T01:58:51.410Z,30.87
2022-12-24T02:01:18.026Z,29.83
2022-12-24T02:03:44.697Z,33.47
2022-12-24T02:06:12.456Z,28.67
2022-12-24T02:08:42.116Z,32.20
2022-12-24T02:11:15.747Z,26.23
2022-12-24T02:13:46.682Z,29.30
2022-12-24T02:16:32.070Z,29.37
2022-12-24T02:18:58.574Z,28.27
2022-12-24T02:21:51.427Z,33.07
2022-12-24T02:24:36.019Z,30.10
2022-12-24T02:27:14.208Z,30.30
2022-12-24T02:29:59.631Z,30.77
2022-12-24T02:32:44.315Z,28.40
2022-12-24T02:35:34.127Z,28.20
2022-12-24T02:38:03.655Z,31.70
2022-12-24T02:40:56.555Z,30.90
2022-12-24T02:43:23.890Z,29.67
2022-12-24T02:45:58.725Z,36.23
2022-12-24T02:48:25.942Z,38.67
2022-12-24T02:51:10.731Z,34.07
2022-12-24T02:53:37.402Z,33.03
2022-12-24T02:56:18.645Z,35.60
2022-12-24T02:59:08.484Z,32.77
2022-12-24T03:01:53.889Z,29.33
2022-12-24T03:04:39.511Z,28.23
2022-12-24T03:07:06.289Z,27.43
2022-12-24T03:09:33.960Z,27.93
2022-12-24T03:12:05.160Z,28.87
2022-12-24T03:14:31.923Z,30.13
2022-12-24T03:16:58.535Z,29.30
2022-12-24T03:19:25.052Z,29.50
2022-12-24T03:21:51.567Z,31.87
2022-12-24T03:24:18.099Z,30.27
2022-12-24T03:26:45.001Z,27.20
2022-12-24T03:29:11.521Z,28.00
2022-12-24T03:31:44.734Z,25.83
2022-12-24T03:34:11.728Z,20.57
2022-12-24T03:36:38.267Z,18.00
2022-12-24T03:39:05.005Z,13.43
2022-12-24T03:41:31.600Z,11.77
2022-12-24T03:43:58.148Z,12.63
2022-12-24T03:46:24.837Z,10.87
2022-12-24T03:48:51.421Z,10.00
2022-12-24T03:51:18.985Z,10.73
2022-12-24T03:53:45.503Z,10.97
2022-12-24T03:56:12.045Z,10.87
2022-12-24T03:58:38.577Z,10.30
2022-12-24T04:01:05.467Z,10.83
2022-12-24T04:03:32.541Z,10.53
2022-12-24T04:06:06.708Z,13.33
2022-12-24T04:08:33.231Z,9.53
2022-12-24T04:11:03.426Z,11.00
2022-12-24T04:13:32.830Z,11.23
2022-12-24T04:15:59.901Z,11.13
2022-12-24T04:18:26.874Z,9.70
2022-12-24T04:20:53.410Z,11.20
2022-12-24T04:23:20.019Z,11.13
2022-12-24T04:25:46.503Z,13.03
2022-12-24T04:28:13.317Z,12.67
2022-12-24T04:30:40.061Z,13.07
2022-12-24T04:33:06.626Z,11.13
2022-12-24T04:35:33.225Z,12.07
2022-12-24T04:37:59.793Z,12.73
2022-12-24T04:40:26.402Z,13.33
2022-12-24T04:42:52.983Z,10.93
2022-12-24T04:45:19.533Z,11.50
2022-12-24T04:47:45.998Z,13.50
2022-12-24T04:50:12.527Z,11.57
2022-12-24T04:52:39.086Z,10.67
2022-12-24T04:55:05.850Z,11.83
2022-12-24T04:57:33.884Z,13.57
2022-12-24T05:00:00.390Z,12.20
2022-12-24T05:02:27.210Z,13.93
2022-12-24T05:04:53.927Z,15.00
2022-12-24T05:07:20.485Z,13.13
2022-12-24T05:09:47.036Z,12.43
2022-12-24T05:12:13.649Z,12.70
2022-12-24T05:14:40.394Z,14.77
2022-12-24T05:17:07.034Z,13.90
2022-12-24T05:19:33.571Z,12.73
2022-12-24T05:22:18.801Z,13.13
2022-12-24T05:25:03.986Z,12.07
2022-12-24T05:27:30.540Z,13.23
2022-12-24T05:29:57.051Z,13.33
2022-12-24T05:32:23.581Z,14.40
2022-12-24T05:34:50.109Z,13.33
2022-12-24T05:37:16.661Z,13.10
2022-12-24T05:39:43.193Z,15.57
2022-12-24T05:42:09.771Z,14.37
2022-12-24T05:44:36.404Z,11.30
2022-12-24T05:47:02.929Z,13.07
2022-12-24T05:49:29.473Z,12.63
2022-12-24T05:51:55.942Z,14.00
2022-12-24T05:54:22.441Z,13.63
2022-12-24T05:56:48.946Z,16.23
2022-12-24T05:59:15.500Z,13.87
2022-12-24T06:01:45.756Z,14.37
2022-12-24T06:04:12.390Z,12.97
2022-12-24T06:06:38.885Z,12.43
2022-12-24T06:09:05.469Z,14.10
2022-12-24T06:11:31.984Z,12.17
2022-12-24T06:13:58.566Z,13.73
2022-12-24T06:16:25.171Z,13.70
2022-12-24T06:18:51.937Z,12.53
2022-12-24T06:21:18.615Z,12.33
2022-12-24T06:23:45.299Z,13.53
2022-12-24T06:26:12.538Z,12.43
2022-12-24T06:28:39.145Z,11.33
2022-12-24T06:31:06.300Z,12.27
2022-12-24T06:33:32.957Z,14.10
2022-12-24T06:35:59.485Z,15.37
2022-12-24T06:38:26.017Z,13.93
2022-12-24T06:40:52.803Z,13.47
2022-12-24T06:43:19.299Z,14.20
2022-12-24T06:45:46.406Z,14.73
2022-12-24T06:48:13.585Z,16.13
2022-12-24T06:50:40.078Z,14.13
2022-12-24T06:53:06.676Z,13.33
2022-12-24T06:55:33.227Z,17.63
2022-12-24T06:57:59.724Z,17.97
2022-12-24T07:00:26.208Z,13.57
2022-12-24T07:02:52.881Z,14.20
2022-12-24T07:05:19.497Z,15.80
2022-12-24T07:07:46.057Z,15.20
2022-12-24T07:10:16.014Z,14.27
2022-12-24T07:12:42.622Z,14.47
2022-12-24T07:15:09.481Z,12.37
2022-12-24T07:17:36.129Z,15.63
2022-12-24T07:20:02.809Z,13.13
2022-12-24T07:22:29.412Z,10.80
2022-12-24T07:24:56.002Z,13.57
2022-12-24T07:27:22.494Z,11.43
2022-12-24T07:29:49.067Z,13.17
2022-12-24T07:32:15.536Z,14.23
2022-12-24T07:34:42.247Z,13.53
2022-12-24T07:37:08.725Z,12.67
2022-12-24T07:39:35.249Z,11.37
2022-12-24T07:42:02.057Z,11.30
2022-12-24T07:44:28.550Z,10.37
2022-12-24T07:46:55.169Z,12.10
2022-12-24T07:49:21.757Z,11.10
2022-12-24T07:51:48.404Z,8.27
2022-12-24T07:54:14.891Z,10.47
2022-12-24T07:56:42.179Z,10.93
2022-12-24T07:59:08.897Z,10.63
2022-12-24T08:01:35.498Z,11.57
2022-12-24T08:04:02.169Z,12.57
2022-12-24T08:06:28.792Z,13.00
2022-12-24T08:08:55.328Z,12.50
2022-12-24T08:11:21.802Z,11.23
2022-12-24T08:13:48.421Z,9.63
2022-12-24T08:16:15.040Z,12.03
2022-12-24T08:18:41.570Z,12.13
2022-12-24T08:21:08.639Z,11.33
2022-12-24T08:23:35.663Z,10.43
2022-12-24T08:26:02.148Z,11.47
2022-12-24T08:28:28.653Z,10.70
2022-12-24T08:30:55.174Z,10.53
2022-12-24T08:33:22.330Z,9.47
2022-12-24T08:35:49.361Z,11.20
2022-12-24T08:38:16.842Z,11.17
2022-12-24T08:40:43.788Z,11.67
2022-12-24T08:43:10.324Z,12.80
2022-12-24T08:45:40.991Z,14.20
2022-12-24T08:48:08.213Z,12.83
2022-12-24T08:50:34.715Z,12.60
2022-12-24T08:53:01.318Z,14.30
2022-12-24T08:55:27.815Z,17.13
2022-12-24T08:57:54.363Z,16.27
2022-12-24T09:00:20.935Z,15.73
2022-12-24T09:02:47.742Z,14.47
2022-12-24T09:05:14.426Z,15.73
2022-12-24T09:07:41.052Z,14.23
2022-12-24T09:10:07.958Z,10.87
2022-12-24T09:12:34.569Z,10.40
2022-12-24T09:15:03.846Z,16.60
2022-12-24T09:17:30.966Z,14.10
2022-12-24T09:19:57.519Z,14.60
2022-12-24T09:22:24.071Z,16.47
2022-12-24T09:24:50.721Z,15.20
2022-12-24T09:27:17.248Z,15.67
2022-12-24T09:29:43.728Z,15.33
2022-12-24T09:32:10.421Z,15.07
2022-12-24T09:34:36.985Z,17.37
2022-12-24T09:37:03.748Z,16.97
2022-12-24T09:39:30.325Z,18.37
2022-12-24T09:42:11.244Z,14.97
2022-12-24T09:44:37.686Z,19.87
2022-12-24T09:47:12.241Z,18.80
2022-12-24T09:49:42.698Z,18.17
2022-12-24T09:52:10.623Z,18.50
2022-12-24T09:54:37.874Z,13.53
2022-12-24T09:57:13.153Z,15.20
2022-12-24T09:59:41.281Z,14.90
2022-12-24T10:02:10.295Z,14.80
2022-12-24T10:04:36.942Z,14.00
2022-12-24T10:07:12.863Z,13.87
2022-12-24T10:09:54.717Z,12.53
2022-12-24T10:12:43.202Z,16.53
2022-12-24T10:15:23.611Z,15.57
2022-12-24T10:17:50.162Z,12.63
2022-12-24T10:20:31.125Z,12.40
2022-12-24T10:23:16.492Z,14.03
2022-12-24T10:25:43.359Z,13.00
2022-12-24T10:28:19.996Z,10.40
2022-12-24T10:30:48.873Z,10.70
2022-12-24T10:33:26.252Z,7.93
2022-12-24T10:35:53.998Z,9.67
2022-12-24T10:38:20.586Z,8.57
2022-12-24T10:40:47.621Z,6.77
2022-12-24T10:43:21.278Z,7.87
2022-12-24T10:45:48.575Z,11.10
2022-12-24T10:48:17.203Z,9.00
2022-12-24T10:50:50.127Z,8.57
2022-12-24T10:53:18.796Z,12.50
2022-12-24T10:55:45.394Z,8.87
2022-12-24T10:58:21.157Z,8.40
2022-12-24T11:00:51.565Z,10.10
2022-12-24T11:03:18.406Z,6.80
2022-12-24T11:05:45.099Z,7.97
2022-12-24T11:08:15.755Z,8.30
2022-12-24T11:10:44.323Z,9.23
2022-12-24T11:13:39.480Z,9.03
2022-12-24T11:16:07.847Z,11.23
2022-12-24T11:18:35.273Z,12.23
2022-12-24T11:21:03.271Z,13.63
2022-12-24T11:23:30.472Z,8.93
2022-12-24T11:25:58.204Z,9.93
2022-12-24T11:28:26.950Z,12.07
2022-12-24T11:31:04.334Z,9.60
2022-12-24T11:33:31.205Z,10.03
2022-12-24T11:36:00.197Z,9.73
2022-12-24T11:38:27.026Z,9.13
2022-12-24T11:40:59.743Z,12.10
2022-12-24T11:43:44.417Z,9.97
2022-12-24T11:46:12.395Z,14.80
2022-12-24T11:48:38.939Z,12.50
2022-12-24T11:51:06.530Z,13.67
2022-12-24T11:53:42.254Z,8.40
2022-12-24T11:56:11.189Z,8.50
2022-12-24T11:58:48.273Z,10.07
2022-12-24T12:01:31.421Z,10.23
2022-12-24T12:03:58.844Z,8.43
2022-12-24T12:06:27.717Z,8.47
2022-12-24T12:08:59.488Z,9.30
2022-12-24T12:11:26.045Z,10.30
2022-12-24T12:13:52.557Z,8.00
2022-12-24T12:16:24.385Z,5.70
2022-12-24T12:18:53.129Z,9.83
2022-12-24T12:21:20.305Z,12.37
2022-12-24T12:23:51.002Z,16.77
2022-12-24T12:26:24.729Z,14.23
2022-12-24T12:28:52.252Z,9.27
2022-12-24T12:31:21.762Z,7.53
2022-12-24T12:33:53.955Z,4.27
2022-12-24T12:36:27.492Z,7.63
2022-12-24T12:38:54.337Z,6.33
2022-12-24T12:41:39.746Z,7.63
2022-12-24T12:44:13.546Z,10.23
2022-12-24T12:46:58.975Z,11.00
2022-12-24T12:49:32.372Z,12.57
2022-12-24T12:52:14.187Z,7.07
2022-12-24T12:54:40.715Z,7.00
2022-12-24T12:57:14.495Z,9.97
2022-12-24T12:59:44.167Z,9.67
2022-12-24T13:02:23.311Z,10.30
2022-12-24T13:04:52.723Z,7.33
2022-12-24T13:07:25.039Z,11.43
2022-12-24T13:10:10.549Z,13.23
2022-12-24T13:12:43.168Z,8.30
2022-12-24T13:15:14.457Z,6.63
2022-12-24T13:17:44.023Z,7.77
2022-12-24T13:20:29.816Z,9.53
2022-12-24T13:23:00.131Z,6.50
2022-12-24T13:25:45.826Z,5.60
2022-12-24T13:28:24.586Z,6.83
2022-12-24T13:30:51.938Z,7.37
2022-12-24T13:33:41.529Z,7.50
2022-12-24T13:36:08.656Z,9.27
2022-12-24T13:38:44.421Z,8.00
2022-12-24T13:41:36.203Z,7.53
2022-12-24T13:44:05.026Z,8.63
2022-12-24T13:46:46.953Z,8.87
2022-12-24T13:49:20.909Z,12.57
2022-12-24T13:51:47.793Z,8.73
2022-12-24T13:54:14.958Z,9.67
2022-12-24T13:56:41.720Z,10.50
2022-12-24T13:59:38.355Z,8.33
2022-12-24T14:02:05.716Z,12.10
2022-12-24T14:04:33.385Z,10.13
2022-12-24T14:07:00.406Z,14.23
2022-12-24T14:09:26.965Z,18.40
2022-12-24T14:11:53.511Z,18.90
2022-12-24T14:14:30.773Z,14.73
2022-12-24T14:17:01.317Z,13.77
2022-12-24T14:19:39.947Z,14.53
2022-12-24T14:22:12.235Z,13.20
2022-12-24T14:24:41.842Z,18.30
2022-12-24T14:27:13.898Z,14.27
2022-12-24T14:29:44.889Z,13.63
2022-12-24T14:32:15.255Z,16.00
2022-12-24T14:34:41.857Z,14.17
2022-12-24T14:37:08.797Z,14.53
2022-12-24T14:39:36.148Z,14.63
2022-12-24T14:42:06.391Z,14.07
2022-12-24T14:44:48.141Z,13.57
2022-12-24T14:47:33.316Z,13.70
2022-12-24T14:50:18.625Z,11.73
2022-12-24T14:53:04.582Z,17.40
2022-12-24T14:55:35.445Z,14.60
2022-12-24T14:58:18.726Z,16.97
2022-12-24T15:00:45.486Z,16.00
2022-12-24T15:03:18.863Z,18.90
2022-12-24T15:05:45.684Z,18.73
2022-12-24T15:08:16.432Z,18.23
2022-12-24T15:10:43.471Z,14.13
2022-12-24T15:13:13.825Z,15.17
2022-12-24T15:15:46.816Z,12.23
2022-12-24T15:18:17.196Z,12.67
2022-12-24T15:20:43.733Z,14.07
2022-12-24T15:23:17.050Z,11.83
2022-12-24T15:25:43.524Z,13.63
2022-12-24T15:28:19.812Z,13.13
2022-12-24T15:30:46.342Z,15.43
2022-12-24T15:33:12.840Z,15.20
2022-12-24T15:35:49.834Z,13.47
2022-12-24T15:38:24.390Z,13.37
2022-12-24T15:40:50.981Z,9.10
2022-12-24T15:43:17.499Z,14.53
2022-12-24T15:45:45.611Z,8.30
2022-12-24T15:48:12.270Z,12.47
2022-12-24T15:50:43.787Z,14.60
2022-12-24T15:53:19.700Z,14.33
2022-12-24T15:55:59.595Z,10.40
2022-12-24T15:58:26.803Z,10.77
2022-12-24T16:01:07.065Z,11.20
2022-12-24T16:03:33.870Z,11.40
2022-12-24T16:06:00.546Z,14.60
2022-12-24T16:08:28.869Z,10.90
2022-12-24T16:11:16.221Z,12.93
2022-12-24T16:13:43.471Z,16.27
2022-12-24T16:16:13.423Z,20.20
2022-12-24T16:18:43.068Z,18.83
2022-12-24T16:21:09.577Z,23.43
2022-12-24T16:23:39.715Z,20.67
2022-12-24T16:26:06.249Z,20.93
2022-12-24T16:28:32.793Z,17.13
2022-12-24T16:30:59.497Z,16.17
2022-12-24T16:33:26.139Z,15.77
2022-12-24T16:35:52.691Z,16.47
2022-12-24T16:38:19.155Z,18.70
2022-12-24T16:40:45.701Z,22.57
2022-12-24T16:43:31.035Z,19.30
2022-12-24T16:46:00.370Z,15.73
2022-12-24T16:48:26.920Z,19.37
2022-12-24T16:50:53.567Z,19.07
2022-12-24T16:53:22.082Z,15.97
2022-12-24T16:55:51.238Z,17.97
2022-12-24T16:58:17.864Z,15.27
2022-12-24T17:00:44.978Z,18.13
2022-12-24T17:03:11.850Z,13.57
2022-12-24T17:05:38.932Z,11.57
2022-12-24T17:08:05.529Z,14.97
2022-12-24T17:10:31.994Z,14.13
2022-12-24T17:12:58.466Z,11.40
2022-12-24T17:15:24.949Z,11.10
2022-12-24T17:17:51.441Z,13.93
2022-12-24T17:20:23.822Z,15.73
2022-12-24T17:22:50.918Z,16.97
2022-12-24T17:25:17.454Z,16.17
2022-12-24T17:27:43.963Z,14.50
2022-12-24T17:30:10.595Z,15.50
2022-12-24T17:32:37.631Z,14.17
2022-12-24T17:35:04.312Z,14.40
2022-12-24T17:37:30.941Z,13.77
2022-12-24T17:39:57.455Z,16.20
2022-12-24T17:42:23.947Z,14.47
2022-12-24T17:44:50.440Z,14.17
2022-12-24T17:47:17.174Z,19.27
2022-12-24T17:49:43.719Z,17.33
2022-12-24T17:52:10.311Z,18.20
2022-12-24T17:54:36.811Z,21.97
2022-12-24T17:57:03.388Z,22.23
2022-12-24T17:59:29.947Z,21.90
2022-12-24T18:01:56.578Z,18.20
2022-12-24T18:04:23.251Z,21.07
2022-12-24T18:06:50.075Z,18.90
2022-12-24T18:09:16.820Z,17.87
2022-12-24T18:11:43.414Z,19.97
2022-12-24T18:14:10.961Z,18.30
2022-12-24T18:16:37.998Z,17.37
2022-12-24T18:19:04.931Z,21.17
2022-12-24T18:21:31.779Z,18.23
2022-12-24T18:23:58.376Z,22.13
2022-12-24T18:26:25.576Z,19.20
2022-12-24T18:28:55.647Z,18.40
2022-12-24T18:31:22.266Z,21.27
2022-12-24T18:33:49.173Z,20.77
2022-12-24T18:36:15.680Z,26.27
2022-12-24T18:38:42.146Z,25.37
2022-12-24T18:41:09.779Z,25.50
2022-12-24T18:43:36.359Z,23.20
2022-12-24T18:46:06.625Z,28.73
2022-12-24T18:48:33.185Z,25.73
2022-12-24T18:51:00.721Z,27.00
2022-12-24T18:53:27.265Z,25.97
2022-12-24T18:55:53.805Z,23.63
2022-12-24T18:58:20.314Z,22.50
2022-12-24T19:00:46.953Z,22.70
2022-12-24T19:03:16.429Z,26.30
2022-12-24T19:05:43.357Z,25.13
2022-12-24T19:08:37.846Z,28.10
2022-12-24T19:10:56.365Z,35.03
2022-12-24T19:13:22.823Z,41.37
2022-12-24T19:15:49.326Z,45.53
2022-12-24T19:18:15.821Z,34.40
2022-12-24T19:20:42.411Z,33.43
2022-12-24T19:23:08.902Z,32.20
2022-12-24T19:25:35.594Z,31.47
2022-12-24T19:28:02.476Z,32.47
2022-12-24T19:30:28.977Z,30.17
2022-12-24T19:32:55.492Z,34.90
2022-12-24T19:35:21.990Z,38.67
2022-12-24T19:37:48.480Z,34.40
2022-12-24T19:40:15.000Z,32.83
2022-12-24T19:42:41.480Z,34.17
2022-12-24T19:45:08.377Z,34.87
2022-12-24T19:47:34.894Z,32.47
2022-12-24T19:50:01.364Z,35.87
2022-12-24T19:52:27.888Z,38.87
2022-12-24T19:54:54.417Z,36.80
2022-12-24T19:57:21.176Z,33.53
2022-12-24T19:59:47.633Z,29.53
2022-12-24T20:02:14.314Z,33.73
2022-12-24T20:04:40.892Z,33.43
2022-12-24T20:07:07.460Z,34.80
2022-12-24T20:09:34.051Z,40.20
2022-12-24T20:12:00.750Z,49.73
2022-12-24T20:14:28.069Z,49.17
2022-12-24T20:16:54.973Z,49.70
2022-12-24T20:19:22.038Z,48.60
2022-12-24T20:21:48.604Z,48.60
2022-12-24T20:24:15.202Z,49.27
2022-12-24T20:26:41.752Z,48.67
2022-12-24T20:29:08.707Z,49.50
2022-12-24T20:31:35.781Z,43.33
2022-12-24T20:34:02.493Z,49.83
2022-12-24T20:36:29.431Z,50.50
2022-12-24T20:38:56.032Z,55.93
2022-12-24T20:41:23.035Z,47.13
2022-12-24T20:43:49.794Z,46.60
2022-12-24T20:46:16.878Z,43.83
2022-12-24T20:48:43.444Z,50.73
2022-12-24T20:51:10.742Z,51.17
2022-12-24T20:53:39.234Z,48.67
2022-12-24T20:56:05.925Z,54.10
2022-12-24T20:58:32.431Z,44.30
2022-12-24T21:00:58.940Z,57.73
2022-12-24T21:03:25.534Z,53.80
2022-12-24T21:05:52.059Z,52.53
2022-12-24T21:08:18.561Z,51.87
2022-12-24T21:10:46.032Z,52.50
2022-12-24T21:13:12.546Z,52.37
2022-12-24T21:15:42.542Z,52.87
2022-12-24T21:18:12.272Z,49.53
2022-12-24T21:20:39.393Z,43.60
2022-12-24T21:23:06.208Z,46.87
2022-12-24T21:25:32.887Z,46.60
2022-12-24T21:27:59.404Z,42.80
2022-12-24T21:30:25.993Z,43.47
2022-12-24T21:32:52.828Z,45.23
2022-12-24T21:35:19.345Z,41.67
2022-12-24T21:37:46.106Z,43.03
2022-12-24T21:40:12.734Z,41.90
2022-12-24T21:42:39.357Z,41.27
2022-12-24T21:45:07.311Z,42.60
2022-12-24T21:47:34.552Z,40.40
2022-12-24T21:50:19.654Z,39.27
2022-12-24T21:52:46.430Z,41.33
2022-12-24T21:55:12.880Z,35.50
2022-12-24T21:57:55.117Z,35.17
2022-12-24T22:00:21.656Z,35.93
2022-12-24T22:02:51.874Z,32.73
2022-12-24T22:05:18.679Z,38.13
2022-12-24T22:08:03.878Z,35.90
2022-12-24T22:10:49.128Z,31.67
2022-12-24T22:13:15.721Z,34.40
2022-12-24T22:15:46.342Z,31.83
2022-12-24T22:18:13.028Z,35.13
2022-12-24T22:20:39.554Z,41.53
2022-12-24T22:23:06.047Z,41.53
2022-12-24T22:25:32.631Z,35.73
2022-12-24T22:27:59.115Z,33.43
2022-12-24T22:30:25.666Z,34.07
2022-12-24T22:32:52.257Z,34.53
2022-12-24T22:35:18.822Z,31.63
2022-12-24T22:37:45.367Z,36.07
2022-12-24T22:40:11.997Z,42.43
2022-12-24T22:42:38.474Z,41.17
2022-12-24T22:45:05.376Z,49.60
2022-12-24T22:47:32.173Z,62.43
2022-12-24T22:49:58.701Z,73.87
2022-12-24T22:52:25.173Z,88.77
2022-12-24T22:54:51.696Z,85.20
2022-12-24T22:57:18.177Z,75.03
2022-12-24T22:59:44.743Z,62.90
2022-12-24T23:02:12.078Z,56.27
2022-12-24T23:04:39.155Z,54.20
2022-12-24T23:07:09.718Z,48.50
2022-12-24T23:09:36.420Z,39.97
2022-12-24T23:12:03.036Z,40.70
2022-12-24T23:14:48.250Z,38.90
2022-12-24T23:17:14.814Z,39.83
2022-12-24T23:19:41.399Z,38.03
2022-12-24T23:22:07.927Z,40.37
2022-12-24T23:24:34.855Z,38.53
2022-12-24T23:27:01.911Z,38.93
2022-12-24T23:29:28.951Z,36.37
2022-12-24T23:31:55.464Z,41.73
2022-12-24T23:34:21.950Z,40.53
2022-12-24T23:36:48.415Z,59.70
2022-12-24T23:39:14.931Z,61.13
2022-12-24T23:41:41.443Z,57.53
2022-12-24T23:44:07.978Z,59.00
2022-12-24T23:46:34.580Z,53.00
2022-12-24T23:49:01.328Z,42.40
2022-12-24T23:51:27.908Z,39.90
2022-12-24T23:53:55.338Z,42.27
2022-12-24T23:56:22.037Z,41.93
2022-12-24T23:58:48.604Z,44.30
